createdAt,value
2018-09-19T00:00:07.308Z,823.09
2018-09-19T00:01:07.330Z,823.08
2018-09-19T00:02:07.342Z,823.09
2018-09-19T00:03:07.373Z,823.08
2018-09-19T00:04:07.379Z,823.07
2018-09-19T00:05:07.398Z,823.06
2018-09-19T00:06:07.416Z,823.06
2018-09-19T00:07:07.435Z,823.07
2018-09-19T00:08:07.450Z,823.05
2018-09-19T00:09:07.469Z,823.06
2018-09-19T00:10:07.487Z,823.08
2018-09-19T00:11:07.504Z,823.06
2018-09-19T00:12:07.523Z,823.06
2018-09-19T00:13:07.547Z,823.04
2018-09-19T00:14:07.566Z,823.06
2018-09-19T00:15:07.621Z,823.02
2018-09-19T00:16:07.592Z,823.04
2018-09-19T00:17:07.612Z,823.06
2018-09-19T00:18:07.629Z,823.07
2018-09-19T00:19:07.646Z,823.04
2018-09-19T00:20:07.734Z,823.03
2018-09-19T00:21:07.682Z,823.04
2018-09-19T00:22:07.698Z,823.06
2018-09-19T00:23:07.725Z,822.99
2018-09-19T00:24:07.735Z,822.99
2018-09-19T00:25:07.754Z,822.98
2018-09-19T00:26:07.770Z,823.01
2018-09-19T00:27:07.813Z,823.03
2018-09-19T00:28:07.811Z,823.04
2018-09-19T00:29:07.827Z,823.02
2018-09-19T00:30:07.843Z,823.03
2018-09-19T00:31:07.865Z,823.04
2018-09-19T00:32:07.877Z,823.04
2018-09-19T00:33:07.897Z,823.06
2018-09-19T00:34:07.913Z,823.08
2018-09-19T00:35:07.931Z,823.09
2018-09-19T00:36:07.953Z,823.06
2018-09-19T00:37:07.965Z,823.08
2018-09-19T00:38:07.988Z,823.05
2018-09-19T00:39:08.008Z,823.05
2018-09-19T00:40:08.023Z,823.04
2018-09-19T00:41:08.037Z,823.05
2018-09-19T00:42:08.067Z,823.07
2018-09-19T00:43:08.075Z,823.10
2018-09-19T00:44:08.092Z,823.11
2018-09-19T00:45:08.107Z,823.13
2018-09-19T00:46:08.126Z,823.08
2018-09-19T00:47:08.144Z,823.07
2018-09-19T00:48:08.174Z,823.06
2018-09-19T00:49:08.179Z,823.05
2018-09-19T00:50:08.198Z,823.11
2018-09-19T00:51:08.218Z,823.08
2018-09-19T00:52:08.237Z,823.08
2018-09-19T00:53:08.251Z,823.11
2018-09-19T00:54:08.302Z,823.07
2018-09-19T00:55:08.284Z,823.07
2018-09-19T00:56:08.305Z,823.07
2018-09-19T00:57:08.323Z,823.06
2018-09-19T00:58:08.340Z,823.04
2018-09-19T00:59:08.357Z,823.02
2018-09-19T01:00:08.377Z,823.02
2018-09-19T01:01:08.389Z,823.03
2018-09-19T01:02:08.412Z,823.05
2018-09-19T01:03:08.431Z,823.02
2018-09-19T01:04:08.454Z,823.01
2018-09-19T01:05:08.461Z,823.00
2018-09-19T01:06:08.479Z,823.02
2018-09-19T01:07:08.498Z,823.04
2018-09-19T01:08:08.517Z,823.08
2018-09-19T01:09:08.531Z,823.07
2018-09-19T01:10:08.561Z,823.08
2018-09-19T01:11:08.570Z,823.09
2018-09-19T01:12:08.585Z,823.09
2018-09-19T01:13:08.604Z,823.11
2018-09-19T01:14:08.620Z,823.12
2018-09-19T01:15:08.640Z,823.09
2018-09-19T01:16:08.655Z,823.11
2018-09-19T01:17:08.671Z,823.14
2018-09-19T01:18:08.693Z,823.12
2018-09-19T01:19:08.714Z,823.12
2018-09-19T01:20:08.732Z,823.10
2018-09-19T01:21:08.741Z,823.07
2018-09-19T01:22:08.761Z,823.08
2018-09-19T01:23:08.778Z,823.06
2018-09-19T01:24:08.795Z,823.08
2018-09-19T01:25:08.813Z,823.04
2018-09-19T01:26:08.832Z,823.08
2018-09-19T01:27:08.848Z,823.06
2018-09-19T01:28:08.866Z,823.04
2018-09-19T01:29:08.888Z,823.05
2018-09-19T01:30:08.901Z,823.05
2018-09-19T01:31:08.918Z,823.03
2018-09-19T01:32:08.959Z,822.98
2018-09-19T01:33:08.956Z,823.02
2018-09-19T01:34:08.970Z,823.03
2018-09-19T01:35:08.989Z,823.02
2018-09-19T01:36:09.010Z,823.04
2018-09-19T01:37:09.025Z,823.01
2018-09-19T01:38:09.043Z,823.01
2018-09-19T01:39:09.065Z,823.00
2018-09-19T01:40:09.089Z,822.99
2018-09-19T01:41:09.095Z,822.99
2018-09-19T01:42:09.111Z,823.01
2018-09-19T01:43:09.134Z,822.98
2018-09-19T01:44:09.148Z,822.98
2018-09-19T01:45:09.164Z,822.98
2018-09-19T01:46:09.184Z,822.97
2018-09-19T01:47:09.214Z,822.97
2018-09-19T01:48:09.216Z,823.00
2018-09-19T01:49:09.238Z,822.99
2018-09-19T01:50:09.253Z,823.02
2018-09-19T01:51:09.273Z,823.04
2018-09-19T01:52:09.288Z,823.07
2018-09-19T01:53:09.306Z,823.04
2018-09-19T01:54:09.334Z,823.04
2018-09-19T01:55:09.428Z,823.01
2018-09-19T01:56:09.367Z,823.02
2018-09-19T01:57:09.375Z,823.03
2018-09-19T01:58:09.394Z,823.03
2018-09-19T01:59:09.412Z,823.01
2018-09-19T02:00:09.440Z,823.03
2018-09-19T02:01:09.448Z,822.99
2018-09-19T02:02:09.485Z,823.02
2018-09-19T02:03:09.488Z,822.99
2018-09-19T02:04:09.506Z,822.97
2018-09-19T02:05:09.520Z,823.02
2018-09-19T02:06:09.550Z,822.96
2018-09-19T02:07:09.557Z,822.91
2018-09-19T02:08:09.577Z,822.94
2018-09-19T02:09:09.591Z,822.92
2018-09-19T02:10:09.611Z,822.93
2018-09-19T02:11:09.621Z,822.94
2018-09-19T02:12:09.643Z,822.96
2018-09-19T02:13:09.660Z,822.95
2018-09-19T02:14:09.674Z,822.94
2018-09-19T02:15:09.700Z,822.98
2018-09-19T02:16:09.715Z,822.92
2018-09-19T02:17:09.732Z,822.97
2018-09-19T02:18:09.751Z,822.95
2018-09-19T02:19:09.764Z,822.95
2018-09-19T02:20:09.782Z,822.96
2018-09-19T02:21:09.807Z,822.94
2018-09-19T02:22:09.819Z,822.94
2018-09-19T02:23:09.835Z,822.95
2018-09-19T02:24:09.852Z,822.94
2018-09-19T02:25:09.872Z,822.92
2018-09-19T02:26:09.889Z,822.94
2018-09-19T02:27:09.908Z,822.95
2018-09-19T02:28:09.925Z,822.96
2018-09-19T02:29:09.938Z,822.99
2018-09-19T02:30:09.965Z,822.97
2018-09-19T02:31:09.979Z,822.96
2018-09-19T02:32:09.996Z,822.97
2018-09-19T02:33:10.011Z,822.96
2018-09-19T02:34:10.029Z,822.97
2018-09-19T02:35:10.046Z,822.96
2018-09-19T02:36:10.072Z,823.00
2018-09-19T02:37:10.082Z,823.01
2018-09-19T02:38:10.099Z,823.02
2018-09-19T02:39:10.127Z,823.00
2018-09-19T02:40:10.148Z,823.02
2018-09-19T02:41:10.151Z,823.01
2018-09-19T02:42:10.174Z,822.99
2018-09-19T02:43:10.188Z,822.96
2018-09-19T02:44:10.203Z,822.97
2018-09-19T02:45:10.222Z,822.98
2018-09-19T02:46:10.243Z,823.00
2018-09-19T02:47:10.280Z,822.96
2018-09-19T02:48:10.275Z,822.92
2018-09-19T02:49:10.296Z,822.96
2018-09-19T02:50:10.312Z,822.97
2018-09-19T02:51:10.328Z,822.97
2018-09-19T02:52:10.346Z,822.96
2018-09-19T02:53:10.370Z,822.96
2018-09-19T02:54:10.387Z,822.94
2018-09-19T02:55:10.403Z,822.93
2018-09-19T02:56:10.482Z,822.91
2018-09-19T02:57:10.430Z,822.87
2018-09-19T02:58:10.449Z,822.84
2018-09-19T02:59:10.474Z,822.86
2018-09-19T03:00:10.486Z,822.84
2018-09-19T03:01:10.502Z,822.82
2018-09-19T03:02:10.520Z,822.80
2018-09-19T03:03:10.540Z,822.81
2018-09-19T03:04:10.556Z,822.82
2018-09-19T03:05:10.575Z,822.80
2018-09-19T03:06:10.594Z,822.80
2018-09-19T03:07:10.607Z,822.78
2018-09-19T03:08:10.628Z,822.78
2018-09-19T03:09:10.653Z,822.78
2018-09-19T03:10:10.662Z,822.77
2018-09-19T03:11:10.675Z,822.75
2018-09-19T03:12:10.694Z,822.75
2018-09-19T03:13:10.716Z,822.74
2018-09-19T03:14:10.730Z,822.75
2018-09-19T03:15:10.747Z,822.73
2018-09-19T03:16:10.770Z,822.74
2018-09-19T03:17:10.820Z,822.78
2018-09-19T03:18:10.803Z,822.78
2018-09-19T03:19:10.817Z,822.75
2018-09-19T03:20:10.835Z,822.74
2018-09-19T03:21:10.851Z,822.79
2018-09-19T03:22:10.874Z,822.77
2018-09-19T03:23:10.886Z,822.82
2018-09-19T03:24:10.903Z,822.81
2018-09-19T03:25:10.928Z,822.84
2018-09-19T03:26:10.938Z,822.85
2018-09-19T03:27:10.963Z,822.84
2018-09-19T03:28:10.975Z,822.86
2018-09-19T03:29:10.992Z,822.86
2018-09-19T03:30:11.010Z,822.89
2018-09-19T03:31:11.030Z,822.86
2018-09-19T03:32:11.045Z,822.88
2018-09-19T03:33:11.062Z,822.84
2018-09-19T03:34:11.083Z,822.87
2018-09-19T03:35:11.115Z,822.86
2018-09-19T03:36:11.113Z,822.81
2018-09-19T03:37:11.132Z,822.83
2018-09-19T03:38:11.149Z,822.81
2018-09-19T03:39:11.166Z,822.78
2018-09-19T03:40:11.182Z,822.76
2018-09-19T03:41:11.201Z,822.75
2018-09-19T03:42:11.222Z,822.75
2018-09-19T03:43:11.237Z,822.68
2018-09-19T03:44:11.261Z,822.70
2018-09-19T03:45:11.270Z,822.71
2018-09-19T03:46:11.287Z,822.70
2018-09-19T03:47:11.303Z,822.68
2018-09-19T03:48:11.325Z,822.66
2018-09-19T03:49:11.341Z,822.65
2018-09-19T03:50:11.358Z,822.68
2018-09-19T03:51:11.375Z,822.67
2018-09-19T03:52:11.392Z,822.69
2018-09-19T03:53:11.407Z,822.64
2018-09-19T03:54:11.437Z,822.66
2018-09-19T03:55:11.448Z,822.66
2018-09-19T03:56:11.464Z,822.64
2018-09-19T03:57:11.479Z,822.65
2018-09-19T03:58:11.520Z,822.69
2018-09-19T03:59:11.510Z,822.68
2018-09-19T04:00:11.569Z,822.65
2018-09-19T04:01:11.545Z,822.67
2018-09-19T04:02:11.564Z,822.69
2018-09-19T04:03:11.579Z,822.66
2018-09-19T04:04:11.600Z,822.67
2018-09-19T04:05:11.615Z,822.65
2018-09-19T04:06:11.633Z,822.67
2018-09-19T04:07:11.649Z,822.67
2018-09-19T04:08:11.675Z,822.69
2018-09-19T04:09:11.683Z,822.66
2018-09-19T04:10:11.701Z,822.62
2018-09-19T04:11:11.716Z,822.66
2018-09-19T04:12:11.757Z,822.63
2018-09-19T04:13:11.751Z,822.63
2018-09-19T04:14:11.768Z,822.67
2018-09-19T04:15:11.791Z,822.67
2018-09-19T04:16:11.803Z,822.66
2018-09-19T04:17:11.819Z,822.64
2018-09-19T04:18:11.836Z,822.64
2018-09-19T04:19:11.853Z,822.62
2018-09-19T04:20:11.872Z,822.61
2018-09-19T04:21:11.887Z,822.63
2018-09-19T04:22:11.910Z,822.63
2018-09-19T04:23:11.926Z,822.67
2018-09-19T04:24:11.946Z,822.63
2018-09-19T04:25:11.955Z,822.65
2018-09-19T04:26:11.980Z,822.69
2018-09-19T04:27:12.000Z,822.67
2018-09-19T04:28:12.008Z,822.67
2018-09-19T04:29:12.025Z,822.66
2018-09-19T04:30:12.044Z,822.66
2018-09-19T04:31:12.058Z,822.65
2018-09-19T04:32:12.143Z,822.64
2018-09-19T04:33:12.093Z,822.64
2018-09-19T04:34:12.115Z,822.62
2018-09-19T04:35:12.132Z,822.66
2018-09-19T04:36:12.146Z,822.64
2018-09-19T04:37:12.160Z,822.64
2018-09-19T04:38:12.177Z,822.67
2018-09-19T04:39:12.196Z,822.63
2018-09-19T04:40:12.221Z,822.66
2018-09-19T04:41:12.229Z,822.67
2018-09-19T04:42:12.245Z,822.66
2018-09-19T04:43:12.263Z,822.68
2018-09-19T04:44:12.279Z,822.70
2018-09-19T04:45:12.383Z,822.65
2018-09-19T04:46:12.314Z,822.65
2018-09-19T04:47:12.330Z,822.66
2018-09-19T04:48:12.348Z,822.69
2018-09-19T04:49:12.363Z,822.68
2018-09-19T04:50:12.390Z,822.68
2018-09-19T04:51:12.404Z,822.73
2018-09-19T04:52:12.417Z,822.71
2018-09-19T04:53:12.432Z,822.72
2018-09-19T04:54:12.448Z,822.74
2018-09-19T04:55:12.466Z,822.72
2018-09-19T04:56:12.481Z,822.74
2018-09-19T04:57:12.499Z,822.78
2018-09-19T04:58:12.515Z,822.78
2018-09-19T04:59:12.533Z,822.80
2018-09-19T05:00:12.551Z,822.83
2018-09-19T05:01:12.567Z,822.82
2018-09-19T05:02:12.582Z,822.85
2018-09-19T05:03:12.605Z,822.86
2018-09-19T05:04:12.621Z,822.87
2018-09-19T05:05:12.643Z,822.85
2018-09-19T05:06:12.650Z,822.87
2018-09-19T05:07:12.685Z,822.89
2018-09-19T05:08:12.696Z,822.90
2018-09-19T05:09:12.702Z,822.95
2018-09-19T05:10:12.718Z,822.92
2018-09-19T05:11:12.750Z,822.94
2018-09-19T05:12:12.751Z,822.93
2018-09-19T05:13:12.767Z,822.95
2018-09-19T05:14:12.785Z,822.92
2018-09-19T05:15:12.802Z,822.96
2018-09-19T05:16:12.820Z,822.98
2018-09-19T05:17:12.834Z,823.01
2018-09-19T05:18:12.853Z,823.01
2018-09-19T05:19:12.876Z,823.00
2018-09-19T05:20:12.891Z,823.00
2018-09-19T05:21:12.916Z,823.03
2018-09-19T05:22:12.922Z,823.03
2018-09-19T05:23:12.937Z,823.04
2018-09-19T05:24:12.955Z,823.05
2018-09-19T05:25:12.971Z,823.07
2018-09-19T05:26:12.987Z,823.08
2018-09-19T05:27:13.010Z,823.11
2018-09-19T05:28:13.022Z,823.08
2018-09-19T05:29:13.046Z,823.10
2018-09-19T05:30:13.055Z,823.10
2018-09-19T05:31:13.076Z,823.11
2018-09-19T05:32:13.092Z,823.11
2018-09-19T05:33:13.108Z,823.13
2018-09-19T05:34:13.159Z,823.14
2018-09-19T05:35:13.145Z,823.11
2018-09-19T05:36:13.160Z,823.12
2018-09-19T05:37:13.178Z,823.11
2018-09-19T05:38:13.203Z,823.12
2018-09-19T05:39:13.209Z,823.12
2018-09-19T05:40:13.230Z,823.14
2018-09-19T05:41:13.245Z,823.15
2018-09-19T05:42:13.261Z,823.17
2018-09-19T05:43:13.278Z,823.19
2018-09-19T05:44:13.296Z,823.16
2018-09-19T05:45:13.312Z,823.20
2018-09-19T05:46:13.354Z,823.16
2018-09-19T05:47:13.348Z,823.18
2018-09-19T05:48:13.364Z,823.23
2018-09-19T05:49:13.382Z,823.23
2018-09-19T05:50:13.400Z,823.24
2018-09-19T05:51:13.413Z,823.25
2018-09-19T05:52:13.431Z,823.22
2018-09-19T05:53:13.448Z,823.25
2018-09-19T05:54:13.463Z,823.22
2018-09-19T05:55:13.483Z,823.24
2018-09-19T05:56:13.507Z,823.23
2018-09-19T05:57:13.515Z,823.26
2018-09-19T05:58:13.532Z,823.29
2018-09-19T05:59:13.550Z,823.30
2018-09-19T06:00:13.567Z,823.30
2018-09-19T06:01:13.583Z,823.32
2018-09-19T06:02:13.601Z,823.28
2018-09-19T06:03:13.619Z,823.30
2018-09-19T06:04:13.637Z,823.35
2018-09-19T06:05:13.650Z,823.32
2018-09-19T06:06:13.668Z,823.36
2018-09-19T06:07:13.691Z,823.30
2018-09-19T06:08:13.703Z,823.38
2018-09-19T06:09:13.720Z,823.35
2018-09-19T06:10:13.736Z,823.33
2018-09-19T06:11:13.755Z,823.38
2018-09-19T06:12:13.772Z,823.39
2018-09-19T06:13:13.793Z,823.36
2018-09-19T06:14:13.809Z,823.41
2018-09-19T06:15:13.821Z,823.38
2018-09-19T06:16:13.850Z,823.42
2018-09-19T06:17:13.858Z,823.38
2018-09-19T06:18:13.876Z,823.41
2018-09-19T06:19:13.891Z,823.41
2018-09-19T06:20:13.906Z,823.41
2018-09-19T06:21:13.926Z,823.39
2018-09-19T06:22:13.941Z,823.39
2018-09-19T06:23:13.958Z,823.40
2018-09-19T06:24:13.975Z,823.40
2018-09-19T06:25:13.995Z,823.41
2018-09-19T06:26:14.011Z,823.44
2018-09-19T06:27:14.028Z,823.41
2018-09-19T06:28:14.044Z,823.44
2018-09-19T06:29:14.060Z,823.43
2018-09-19T06:30:14.083Z,823.45
2018-09-19T06:31:14.098Z,823.44
2018-09-19T06:32:14.112Z,823.49
2018-09-19T06:33:14.256Z,823.44
2018-09-19T06:34:14.146Z,823.45
2018-09-19T06:35:14.168Z,823.42
2018-09-19T06:36:14.184Z,823.47
2018-09-19T06:37:14.196Z,823.47
2018-09-19T06:38:14.220Z,823.47
2018-09-19T06:39:14.236Z,823.45
2018-09-19T06:40:14.351Z,823.45
2018-09-19T06:41:14.263Z,823.43
2018-09-19T06:42:14.283Z,823.42
2018-09-19T06:43:14.345Z,823.42
2018-09-19T06:44:14.342Z,823.43
2018-09-19T06:45:14.334Z,823.40
2018-09-19T06:46:14.353Z,823.44
2018-09-19T06:47:14.371Z,823.43
2018-09-19T06:48:14.386Z,823.41
2018-09-19T06:49:14.407Z,823.45
2018-09-19T06:50:14.420Z,823.44
2018-09-19T06:51:14.438Z,823.47
2018-09-19T06:52:14.513Z,823.48
2018-09-19T06:53:14.471Z,823.51
2018-09-19T06:54:14.493Z,823.51
2018-09-19T06:55:14.505Z,823.50
2018-09-19T06:56:14.526Z,823.55
2018-09-19T06:57:14.542Z,823.51
2018-09-19T06:58:14.560Z,823.51
2018-09-19T06:59:14.576Z,823.50
2018-09-19T07:00:14.593Z,823.54
2018-09-19T07:01:14.610Z,823.54
2018-09-19T07:02:14.627Z,823.53
2018-09-19T07:03:14.643Z,823.56
2018-09-19T07:04:14.663Z,823.58
2018-09-19T07:05:14.680Z,823.60
2018-09-19T07:06:14.698Z,823.63
2018-09-19T07:07:14.717Z,823.63
2018-09-19T07:08:14.731Z,823.63
2018-09-19T07:09:14.749Z,823.66
2018-09-19T07:10:14.768Z,823.62
2018-09-19T07:11:14.783Z,823.65
2018-09-19T07:12:14.800Z,823.70
2018-09-19T07:13:14.825Z,823.70
2018-09-19T07:14:14.839Z,823.69
2018-09-19T07:15:14.855Z,823.68
2018-09-19T07:16:14.870Z,823.67
2018-09-19T07:17:14.887Z,823.70
2018-09-19T07:18:14.912Z,823.69
2018-09-19T07:19:14.927Z,823.72
2018-09-19T07:20:14.946Z,823.71
2018-09-19T07:21:14.959Z,823.74
2018-09-19T07:22:14.974Z,823.71
2018-09-19T07:23:14.993Z,823.74
2018-09-19T07:24:15.015Z,823.78
2018-09-19T07:25:15.085Z,823.79
2018-09-19T07:26:15.047Z,823.72
2018-09-19T07:27:15.067Z,823.75
2018-09-19T07:28:15.082Z,823.72
2018-09-19T07:29:15.100Z,823.74
2018-09-19T07:30:15.116Z,823.74
2018-09-19T07:31:15.203Z,823.71
2018-09-19T07:32:15.152Z,823.69
2018-09-19T07:33:15.169Z,823.71
2018-09-19T07:34:15.186Z,823.74
2018-09-19T07:35:15.205Z,823.73
2018-09-19T07:36:15.229Z,823.71
2018-09-19T07:37:15.240Z,823.78
2018-09-19T07:38:15.263Z,823.75
2018-09-19T07:39:15.275Z,823.75
2018-09-19T07:40:15.359Z,823.73
2018-09-19T07:41:15.312Z,823.74
2018-09-19T07:42:15.333Z,823.77
2018-09-19T07:43:15.346Z,823.78
2018-09-19T07:44:15.370Z,823.75
2018-09-19T07:45:15.384Z,823.77
2018-09-19T07:46:15.398Z,823.79
2018-09-19T07:47:15.417Z,823.78
2018-09-19T07:48:15.482Z,823.77
2018-09-19T07:49:15.486Z,823.76
2018-09-19T07:50:15.469Z,823.78
2018-09-19T07:51:15.487Z,823.81
2018-09-19T07:52:15.504Z,823.80
2018-09-19T07:53:15.524Z,823.80
2018-09-19T07:54:15.542Z,823.81
2018-09-19T07:55:15.625Z,823.85
2018-09-19T07:56:15.578Z,823.85
2018-09-19T07:57:15.596Z,823.82
2018-09-19T07:58:15.619Z,823.87
2018-09-19T07:59:15.630Z,823.85
2018-09-19T08:00:15.647Z,823.86
2018-09-19T08:01:15.707Z,823.89
2018-09-19T08:02:15.684Z,823.90
2018-09-19T08:03:15.700Z,823.89
2018-09-19T08:04:15.719Z,823.93
2018-09-19T08:05:15.739Z,823.93
2018-09-19T08:06:15.756Z,823.94
2018-09-19T08:07:15.774Z,823.94
2018-09-19T08:08:15.791Z,823.94
2018-09-19T08:09:15.864Z,823.97
2018-09-19T08:10:15.826Z,823.92
2018-09-19T08:11:15.849Z,823.94
2018-09-19T08:12:15.865Z,823.97
2018-09-19T08:13:15.882Z,824.01
2018-09-19T08:14:15.899Z,823.99
2018-09-19T08:15:15.919Z,823.96
2018-09-19T08:16:15.939Z,824.00
2018-09-19T08:17:15.956Z,824.00
2018-09-19T08:18:15.970Z,824.05
2018-09-19T08:19:15.988Z,824.04
2018-09-19T08:20:16.009Z,824.05
2018-09-19T08:21:16.028Z,824.06
2018-09-19T08:22:16.047Z,824.10
2018-09-19T08:23:16.061Z,824.05
2018-09-19T08:24:16.081Z,824.09
2018-09-19T08:25:16.105Z,824.06
2018-09-19T08:26:16.119Z,824.06
2018-09-19T08:27:16.140Z,824.06
2018-09-19T08:28:16.154Z,824.07
2018-09-19T08:29:16.171Z,824.06
2018-09-19T08:30:16.190Z,824.07
2018-09-19T08:31:16.212Z,824.12
2018-09-19T08:32:16.227Z,824.12
2018-09-19T08:33:16.245Z,824.13
2018-09-19T08:34:16.264Z,824.19
2018-09-19T08:35:16.284Z,824.14
2018-09-19T08:36:16.304Z,824.18
2018-09-19T08:37:16.319Z,824.16
2018-09-19T08:38:16.342Z,824.22
2018-09-19T08:39:16.360Z,824.23
2018-09-19T08:40:16.380Z,824.20
2018-09-19T08:41:16.393Z,824.21
2018-09-19T08:42:16.422Z,824.23
2018-09-19T08:43:16.431Z,824.22
2018-09-19T08:44:16.452Z,824.23
2018-09-19T08:45:16.467Z,824.23
2018-09-19T08:46:16.485Z,824.24
2018-09-19T08:47:16.505Z,824.26
2018-09-19T08:48:16.530Z,824.25
2018-09-19T08:49:16.542Z,824.26
2018-09-19T08:50:16.562Z,824.25
2018-09-19T08:51:16.586Z,824.29
2018-09-19T08:52:16.597Z,824.29
2018-09-19T08:53:16.618Z,824.23
2018-09-19T08:54:16.636Z,824.25
2018-09-19T08:55:16.657Z,824.27
2018-09-19T08:56:16.686Z,824.26
2018-09-19T08:57:16.702Z,824.23
2018-09-19T08:58:16.710Z,824.22
2018-09-19T08:59:16.730Z,824.21
2018-09-19T09:00:16.758Z,824.18
2018-09-19T09:01:16.767Z,824.19
2018-09-19T09:02:16.794Z,824.20
2018-09-19T09:03:16.807Z,824.17
2018-09-19T09:04:16.827Z,824.19
2018-09-19T09:05:16.860Z,824.19
2018-09-19T09:06:16.863Z,824.17
2018-09-19T09:07:16.882Z,824.16
2018-09-19T09:08:16.902Z,824.14
2018-09-19T09:09:16.924Z,824.16
2018-09-19T09:10:16.941Z,824.15
2018-09-19T09:11:16.960Z,824.12
2018-09-19T09:12:17.063Z,824.16
2018-09-19T09:13:16.998Z,824.15
2018-09-19T09:14:17.021Z,824.07
2018-09-19T09:15:17.038Z,824.12
2018-09-19T09:16:17.055Z,824.14
2018-09-19T09:17:17.076Z,824.15
2018-09-19T09:18:17.095Z,824.12
2018-09-19T09:19:17.117Z,824.15
2018-09-19T09:20:17.133Z,824.13
2018-09-19T09:21:17.153Z,824.13
2018-09-19T09:22:17.177Z,824.15
2018-09-19T09:23:17.294Z,824.14
2018-09-19T09:24:17.212Z,824.14
2018-09-19T09:25:17.234Z,824.13
2018-09-19T09:26:17.256Z,824.13
2018-09-19T09:27:17.343Z,824.09
2018-09-19T09:28:17.293Z,824.11
2018-09-19T09:29:17.309Z,824.13
2018-09-19T09:30:17.332Z,824.11
2018-09-19T09:31:17.444Z,824.08
2018-09-19T09:33:17.391Z,824.14
2018-09-19T09:34:17.502Z,824.13
2018-09-19T09:35:17.433Z,824.13
2018-09-19T09:36:17.450Z,824.08
2018-09-19T09:37:17.473Z,824.08
2018-09-19T09:38:17.488Z,824.11
2018-09-19T09:39:17.539Z,824.08
2018-09-19T09:40:17.598Z,824.09
2018-09-19T09:41:17.549Z,824.04
2018-09-19T09:42:17.570Z,824.06
2018-09-19T09:43:17.592Z,824.01
2018-09-19T09:44:17.615Z,824.01
2018-09-19T09:45:17.631Z,823.94
2018-09-19T09:46:17.653Z,824.03
2018-09-19T09:47:17.675Z,823.99
2018-09-19T09:48:17.705Z,824.03
2018-09-19T09:49:17.713Z,824.04
2018-09-19T09:50:17.781Z,824.00
2018-09-19T09:51:17.777Z,824.04
2018-09-19T09:52:17.778Z,823.99
2018-09-19T09:53:17.885Z,824.06
2018-09-19T09:54:17.817Z,824.05
2018-09-19T09:55:17.943Z,824.06
2018-09-19T09:56:17.859Z,824.06
2018-09-19T09:57:17.877Z,824.00
2018-09-19T09:58:17.906Z,824.04
2018-09-19T09:59:17.922Z,823.97
2018-09-19T10:00:17.946Z,824.02
2018-09-19T10:01:17.963Z,824.04
2018-09-19T10:02:17.990Z,824.00
2018-09-19T10:03:18.006Z,824.02
2018-09-19T10:04:18.024Z,823.96
2018-09-19T10:05:18.076Z,824.00
2018-09-19T10:06:18.073Z,823.95
2018-09-19T10:07:18.090Z,823.97
2018-09-19T10:08:18.109Z,823.96
2018-09-19T10:09:18.131Z,823.96
2018-09-19T10:10:18.155Z,823.96
2018-09-19T10:11:18.174Z,823.93
2018-09-19T10:12:18.195Z,823.93
2018-09-19T10:13:18.220Z,823.91
2018-09-19T10:14:18.241Z,823.88
2018-09-19T10:15:18.259Z,823.91
2018-09-19T10:16:18.286Z,823.90
2018-09-19T10:17:18.316Z,823.92
2018-09-19T10:18:18.377Z,823.88
2018-09-19T10:19:18.347Z,823.87
2018-09-19T10:20:18.366Z,823.85
2018-09-19T10:21:18.390Z,823.91
2018-09-19T10:22:18.422Z,823.89
2018-09-19T10:23:18.434Z,823.93
2018-09-19T10:24:18.455Z,823.93
2018-09-19T10:25:18.477Z,823.88
2018-09-19T10:26:18.500Z,823.87
2018-09-19T10:27:18.521Z,823.87
2018-09-19T10:28:18.546Z,823.86
2018-09-19T10:29:18.564Z,823.88
2018-09-19T10:30:18.590Z,823.91
2018-09-19T10:31:18.610Z,823.89
2018-09-19T10:32:18.630Z,823.91
2018-09-19T10:33:18.652Z,823.89
2018-09-19T10:34:18.675Z,823.82
2018-09-19T10:35:18.737Z,823.93
2018-09-19T10:36:18.720Z,823.91
2018-09-19T10:37:18.742Z,823.84
2018-09-19T10:38:18.765Z,823.91
2018-09-19T10:39:18.785Z,823.93
2018-09-19T10:40:18.815Z,823.91
2018-09-19T10:41:18.830Z,823.91
2018-09-19T10:42:18.852Z,823.89
2018-09-19T10:43:18.872Z,823.92
2018-09-19T10:44:18.896Z,823.92
2018-09-19T10:45:18.918Z,823.87
2018-09-19T10:46:18.941Z,823.91
2018-09-19T10:47:18.963Z,823.88
2018-09-19T10:48:18.985Z,823.84
2018-09-19T10:49:19.081Z,823.87
2018-09-19T10:50:19.030Z,823.84
2018-09-19T10:51:19.055Z,823.90
2018-09-19T10:52:19.076Z,823.89
2018-09-19T10:53:19.097Z,823.91
2018-09-19T10:54:19.121Z,823.88
2018-09-19T10:55:19.143Z,823.86
2018-09-19T10:56:19.168Z,823.89
2018-09-19T10:57:19.189Z,823.85
2018-09-19T10:58:19.216Z,823.86
2018-09-19T10:59:19.334Z,823.91
2018-09-19T11:00:19.258Z,823.92
2018-09-19T11:01:19.282Z,823.91
2018-09-19T11:02:19.303Z,823.88
2018-09-19T11:03:19.344Z,823.82
2018-09-19T11:04:19.353Z,823.91
2018-09-19T11:05:19.372Z,823.89
2018-09-19T11:06:19.395Z,823.89
2018-09-19T11:07:19.418Z,823.88
2018-09-19T11:08:19.445Z,823.89
2018-09-19T11:09:19.463Z,823.90
2018-09-19T11:10:19.488Z,823.88
2018-09-19T11:11:19.510Z,823.90
2018-09-19T11:12:19.532Z,823.85
2018-09-19T11:13:19.557Z,823.85
2018-09-19T11:14:19.582Z,823.89
2018-09-19T11:15:19.608Z,823.85
2018-09-19T11:16:19.628Z,823.85
2018-09-19T11:17:19.654Z,823.86
2018-09-19T11:18:19.674Z,823.77
2018-09-19T11:19:19.699Z,823.81
2018-09-19T11:20:19.722Z,823.80
2018-09-19T11:21:19.743Z,823.76
2018-09-19T11:22:19.770Z,823.79
2018-09-19T11:23:19.789Z,823.81
2018-09-19T11:24:19.812Z,823.80
2018-09-19T11:25:19.837Z,823.71
2018-09-19T11:26:19.889Z,823.78
2018-09-19T11:27:19.882Z,823.76
2018-09-19T11:28:19.906Z,823.83
2018-09-19T11:29:19.928Z,823.78
2018-09-19T11:30:19.953Z,823.80
2018-09-19T11:31:20.031Z,823.83
2018-09-19T11:32:20.002Z,823.79
2018-09-19T11:33:20.028Z,823.83
2018-09-19T11:34:20.046Z,823.80
2018-09-19T11:35:20.071Z,823.83
2018-09-19T11:36:20.095Z,823.82
2018-09-19T11:37:20.117Z,823.80
2018-09-19T11:38:20.138Z,823.87
2018-09-19T11:39:20.164Z,823.86
2018-09-19T11:40:20.188Z,823.81
2018-09-19T11:41:20.215Z,823.83
2018-09-19T11:42:20.235Z,823.85
2018-09-19T11:43:20.277Z,823.82
2018-09-19T11:44:20.280Z,823.81
2018-09-19T11:45:20.304Z,823.78
2018-09-19T11:46:20.329Z,823.80
2018-09-19T11:47:20.354Z,823.78
2018-09-19T11:48:20.379Z,823.82
2018-09-19T11:49:20.401Z,823.76
2018-09-19T11:50:20.429Z,823.79
2018-09-19T11:51:20.451Z,823.79
2018-09-19T11:52:20.472Z,823.79
2018-09-19T11:53:20.498Z,823.81
2018-09-19T11:54:20.520Z,823.89
2018-09-19T11:55:20.544Z,823.82
2018-09-19T11:56:20.569Z,823.85
2018-09-19T11:57:20.593Z,823.84
2018-09-19T11:58:20.617Z,823.80
2018-09-19T11:59:20.643Z,823.79
2018-09-19T12:00:20.667Z,823.80
2018-09-19T12:01:20.692Z,823.81
2018-09-19T12:02:20.714Z,823.78
2018-09-19T12:03:20.740Z,823.70
2018-09-19T12:04:20.765Z,823.74
2018-09-19T12:05:20.788Z,823.75
2018-09-19T12:06:20.815Z,823.78
2018-09-19T12:07:20.923Z,823.74
2018-09-19T12:08:20.862Z,823.75
2018-09-19T12:09:20.886Z,823.81
2018-09-19T12:10:20.910Z,823.76
2018-09-19T12:11:20.935Z,823.79
2018-09-19T12:12:20.959Z,823.75
2018-09-19T12:13:20.982Z,823.79
2018-09-19T12:14:21.007Z,823.75
2018-09-19T12:15:21.032Z,823.80
2018-09-19T12:16:21.057Z,823.79
2018-09-19T12:17:21.081Z,823.77
2018-09-19T12:18:21.106Z,823.84
2018-09-19T12:19:21.149Z,823.75
2018-09-19T12:20:21.154Z,823.75
2018-09-19T12:21:21.177Z,823.80
2018-09-19T12:22:21.202Z,823.78
2018-09-19T12:23:21.228Z,823.71
2018-09-19T12:24:21.252Z,823.72
2018-09-19T12:25:21.274Z,823.68
2018-09-19T12:26:21.365Z,823.70
2018-09-19T12:27:21.327Z,823.61
2018-09-19T12:28:21.347Z,823.65
2018-09-19T12:29:21.374Z,823.68